Time;durP1;ratioP1;P1;durP2;ratioP2;P2;SDS_P1;SDS_P2;PMS_P1;PMS_P2;Temp;Humidity;BMP_temperature;BMP_pressure;BME280_temperature;BME280_humidity;BME280_pressure;Samples;Min_cycle;Max_cycle;Signal;HPM_P1;HPM_P2
2023/06/29 00:01:30;;;;;;;9.52;3.83;;;;;;;19.38;79.54;100576.84;4994315;28;20031;-86
2023/06/29 00:03:57;;;;;;;7.03;2.88;;;;;;;19.34;80.34;100563.72;4986865;28;20035;-83
2023/06/29 00:06:22;;;;;;;8.45;3.20;;;;;;;19.23;80.87;100570.47;4959255;28;20093;-83
2023/06/29 00:08:49;;;;;;;7.60;2.72;;;;;;;19.21;81.49;100566.22;4980314;28;20034;-81
2023/06/29 00:11:14;;;;;;;3.88;2.65;;;;;;;19.19;81.82;100579.19;4974858;28;20027;-81
2023/06/29 00:13:40;;;;;;;10.07;2.97;;;;;;;18.91;82.73;100548.88;4974073;28;20058;-80
2023/06/29 00:16:05;;;;;;;6.63;3.50;;;;;;;19.02;83.73;100573.00;4956707;28;20030;-81
2023/06/29 00:18:33;;;;;;;6.78;3.47;;;;;;;18.99;84.36;100567.91;4955589;28;20030;-80
2023/06/29 00:20:58;;;;;;;8.75;3.00;;;;;;;18.93;84.55;100572.19;4973252;28;20093;-82
2023/06/29 00:23:26;;;;;;;7.30;3.28;;;;;;;18.86;85.05;100573.13;4959055;28;20023;-84
2023/06/29 00:25:55;;;;;;;6.22;2.95;;;;;;;18.69;86.24;100571.50;4977279;28;20030;-84
2023/06/29 00:28:20;;;;;;;4.20;2.85;;;;;;;18.31;87.42;100529.63;4977236;28;20031;-85
2023/06/29 00:30:46;;;;;;;6.45;3.40;;;;;;;18.28;88.96;100563.50;4960535;28;20113;-85
2023/06/29 00:33:11;;;;;;;7.57;2.95;;;;;;;18.11;90.59;100561.84;4961120;28;20132;-86
2023/06/29 00:35:37;;;;;;;12.23;3.22;;;;;;;18.01;92.24;100566.63;4976891;28;20031;-88
2023/06/29 00:38:02;;;;;;;5.68;3.72;;;;;;;17.80;93.74;100558.16;4959988;28;20106;-87
2023/06/29 00:40:28;;;;;;;5.60;3.58;;;;;;;17.72;95.46;100564.47;4960373;28;20034;-86
2023/06/29 00:42:55;;;;;;;5.30;3.53;;;;;;;17.61;96.97;100544.97;4977155;28;20522;-84
2023/06/29 00:45:20;;;;;;;9.57;3.83;;;;;;;17.51;98.52;100542.38;4975474;28;20031;-84
2023/06/29 00:47:47;;;;;;;6.47;3.78;;;;;;;17.43;99.69;100542.38;4958142;28;20062;-81
2023/06/29 00:50:13;;;;;;;9.50;4.85;;;;;;;17.45;100.00;100562.09;4973573;28;20049;-84
2023/06/29 00:52:38;;;;;;;8.38;4.10;;;;;;;17.31;100.00;100547.31;4974119;28;20054;-82
2023/06/29 00:55:04;;;;;;;11.27;5.13;;;;;;;17.45;100.00;100562.09;4977910;28;20601;-87
2023/06/29 00:57:30;;;;;;;7.22;4.00;;;;;;;17.48;100.00;100563.63;4991650;28;20050;-85
2023/06/29 00:59:59;;;;;;;7.30;4.38;;;;;;;17.51;100.00;100568.72;4991285;28;20030;-83
2023/06/29 01:02:25;;;;;;;10.18;4.75;;;;;;;17.64;100.00;100569.09;4974423;28;20077;-83
2023/06/29 01:04:52;;;;;;;9.15;5.13;;;;;;;17.63;100.00;100572.81;4982350;28;20039;-84
2023/06/29 01:07:28;;;;;;;11.48;5.32;;;;;;;17.65;100.00;100565.31;4962992;28;20030;-85
2023/06/29 01:09:55;;;;;;;7.07;3.80;;;;;;;17.61;100.00;100555.84;4977602;28;20054;-82
2023/06/29 01:12:21;;;;;;;8.90;4.07;;;;;;;17.56;100.00;100550.91;4976998;28;20038;-83
2023/06/29 01:14:49;;;;;;;6.80;3.90;;;;;;;17.66;100.00;100567.03;4973084;28;20034;-84
2023/06/29 01:17:17;;;;;;;9.93;3.67;;;;;;;17.59;100.00;100561.44;4974146;28;20027;-83
2023/06/29 01:19:46;;;;;;;5.18;3.30;;;;;;;17.73;100.00;100578.94;4973254;28;20473;-82
2023/06/29 01:22:23;;;;;;;4.53;3.65;;;;;;;17.67;100.00;100574.19;4974103;28;20023;-85
2023/06/29 01:24:48;;;;;;;4.28;3.20;;;;;;;17.65;100.00;100566.19;4956814;28;20026;-84
2023/06/29 01:27:15;;;;;;;4.20;3.42;;;;;;;17.78;100.00;100558.34;4973815;28;20030;-83
2023/06/29 01:29:41;;;;;;;4.40;3.65;;;;;;;17.74;99.69;100547.97;4955595;28;20066;-84
2023/06/29 01:32:07;;;;;;;5.05;3.65;;;;;;;17.82;99.61;100546.13;4974377;28;20042;-85
2023/06/29 01:34:35;;;;;;;5.35;3.63;;;;;;;17.67;99.15;100533.38;4975259;28;20038;-83
2023/06/29 01:37:16;;;;;;;9.45;3.78;;;;;;;17.71;99.45;100545.59;4958636;28;20398;-84
2023/06/29 01:39:54;;;;;;;6.22;3.88;;;;;;;17.79;99.94;100572.81;4975353;28;20106;-85
2023/06/29 01:42:24;;;;;;;7.30;4.10;;;;;;;17.68;100.00;100554.97;4959171;28;20562;-85
2023/06/29 01:44:50;;;;;;;5.53;3.92;;;;;;;17.84;100.00;100565.81;4977177;28;20042;-84
2023/06/29 01:47:17;;;;;;;9.05;4.47;;;;;;;17.73;100.00;100535.41;4978951;28;20026;-84
2023/06/29 01:49:43;;;;;;;11.75;4.72;;;;;;;17.88;100.00;100550.84;4978571;28;20047;-84
2023/06/29 01:52:09;;;;;;;9.27;4.20;;;;;;;18.01;100.00;100555.72;4983417;28;20094;-85
2023/06/29 01:54:35;;;;;;;6.20;4.13;;;;;;;18.01;100.00;100558.44;4995221;28;20039;-87
2023/06/29 01:57:00;;;;;;;7.25;4.50;;;;;;;18.10;100.00;100581.94;4994283;28;20128;-85
2023/06/29 01:59:26;;;;;;;4.95;3.92;;;;;;;18.02;100.00;100573.78;4981655;28;20030;-84
2023/06/29 02:01:52;;;;;;;4.90;4.00;;;;;;;18.05;100.00;100576.16;4981543;28;20039;-84
2023/06/29 02:04:18;;;;;;;5.65;4.32;;;;;;;18.02;100.00;100556.59;4981163;28;20049;-84
2023/06/29 02:06:43;;;;;;;4.55;3.88;;;;;;;18.24;100.00;100592.09;4981900;28;20042;-82
2023/06/29 02:09:09;;;;;;;6.38;3.95;;;;;;;18.19;100.00;100597.22;4980665;28;20059;-83
2023/06/29 02:11:35;;;;;;;10.15;4.05;;;;;;;18.19;99.95;100608.09;4993401;28;20309;-86
2023/06/29 02:14:00;;;;;;;6.78;3.30;;;;;;;18.07;99.85;100582.25;4983970;28;20042;-85
2023/06/29 02:16:25;;;;;;;8.85;4.57;;;;;;;18.26;99.61;100598.19;4966784;28;20030;-87
2023/06/29 02:18:51;;;;;;;8.70;4.55;;;;;;;18.28;99.60;100574.38;4982610;28;20463;-89
2023/06/29 02:21:16;;;;;;;8.57;5.20;;;;;;;18.20;99.43;100549.88;4966282;28;20044;-87
2023/06/29 02:23:42;;;;;;;11.30;4.75;;;;;;;18.14;99.76;100533.41;4985738;28;20073;-87
2023/06/29 02:26:07;;;;;;;6.40;4.88;;;;;;;18.17;99.61;100536.63;4965040;28;20038;-85
2023/06/29 02:28:33;;;;;;;11.27;5.57;;;;;;;18.14;100.00;100527.97;4982401;28;20027;-83
2023/06/29 02:30:58;;;;;;;5.88;4.32;;;;;;;18.16;100.00;100525.94;4963461;28;20031;-84
2023/06/29 02:33:24;;;;;;;7.65;5.15;;;;;;;18.18;99.98;100526.59;4985643;28;20045;-84
2023/06/29 02:35:49;;;;;;;12.95;5.00;;;;;;;18.16;100.00;100525.94;4976934;28;20031;-84
2023/06/29 02:38:15;;;;;;;7.60;5.22;;;;;;;18.16;100.00;100532.22;4982432;28;20069;-84
2023/06/29 02:40:41;;;;;;;7.88;5.50;;;;;;;18.12;100.00;100541.75;4981243;28;20031;-85
2023/06/29 02:43:06;;;;;;;13.05;5.75;;;;;;;18.22;100.00;100547.88;4982613;28;20050;-84
2023/06/29 02:45:31;;;;;;;8.25;5.20;;;;;;;18.30;100.00;100555.13;4965317;28;20147;-84
2023/06/29 02:47:57;;;;;;;7.05;5.00;;;;;;;18.24;99.68;100567.59;4980816;28;20058;-82
2023/06/29 02:50:23;;;;;;;13.80;5.43;;;;;;;18.27;99.07;100589.00;4996839;28;20045;-82
2023/06/29 02:52:48;;;;;;;11.20;5.03;;;;;;;18.22;98.78;100556.03;4991859;28;20037;-84
2023/06/29 02:55:14;;;;;;;8.95;6.13;;;;;;;18.28;98.40;100568.09;4965010;28;20491;-83
2023/06/29 02:57:39;;;;;;;6.45;5.20;;;;;;;18.27;98.69;100572.69;4982057;28;20034;-82
2023/06/29 03:00:06;;;;;;;9.95;5.18;;;;;;;18.22;98.64;100541.56;4984552;28;20034;-85
2023/06/29 03:02:31;;;;;;;10.23;5.55;;;;;;;18.42;98.00;100564.63;4983464;28;20038;-87
2023/06/29 03:04:57;;;;;;;10.90;5.93;;;;;;;18.27;98.39;100545.44;4983054;28;20023;-87
2023/06/29 03:07:22;;;;;;;6.43;5.03;;;;;;;18.20;98.55;100557.19;4982738;28;20062;-86
2023/06/29 03:09:48;;;;;;;7.13;5.10;;;;;;;18.29;98.90;100567.03;4983730;28;20094;-86
2023/06/29 03:12:13;;;;;;;5.25;4.75;;;;;;;18.33;98.56;100582.88;4983592;28;20030;-85
2023/06/29 03:14:39;;;;;;;8.02;5.53;;;;;;;18.27;98.59;100571.81;4980935;28;20466;-85
2023/06/29 03:17:05;;;;;;;12.35;5.28;;;;;;;18.29;98.00;100569.75;4962334;28;20068;-85
2023/06/29 03:19:30;;;;;;;10.85;5.90;;;;;;;18.40;98.42;100583.88;4962179;28;20054;-83
2023/06/29 03:21:56;;;;;;;7.53;6.13;;;;;;;18.41;98.62;100558.31;4976515;28;20506;-81
2023/06/29 03:24:21;;;;;;;10.23;4.85;;;;;;;18.40;98.03;100547.63;4975752;28;20035;-83
2023/06/29 03:26:47;;;;;;;8.15;5.28;;;;;;;18.32;97.79;100543.03;4976173;28;20419;-82
2023/06/29 03:29:12;;;;;;;6.53;5.03;;;;;;;18.40;97.41;100567.53;4977468;28;20015;-83
2023/06/29 03:31:38;;;;;;;10.63;5.70;;;;;;;18.46;97.36;100564.09;4976968;28;20023;-82
2023/06/29 03:34:03;;;;;;;8.82;5.25;;;;;;;18.40;97.88;100593.91;4977523;28;20030;-88
2023/06/29 03:36:28;;;;;;;8.60;5.65;;;;;;;18.46;97.72;100599.50;4979199;28;20491;-79
2023/06/29 03:38:54;;;;;;;12.73;4.78;;;;;;;18.52;97.66;100586.22;4972895;28;20022;-79
2023/06/29 03:41:19;;;;;;;9.55;5.28;;;;;;;18.47;97.87;100568.50;4973331;28;20571;-80
2023/06/29 03:43:45;;;;;;;8.20;5.53;;;;;;;18.52;97.85;100591.69;4973582;28;20019;-81
2023/06/29 03:46:12;;;;;;;9.88;5.35;;;;;;;18.54;97.98;100614.13;4960472;28;20030;-82
2023/06/29 03:48:37;;;;;;;19.00;6.03;;;;;;;18.57;97.48;100639.16;4977593;28;20070;-81
2023/06/29 03:51:03;;;;;;;12.75;6.97;;;;;;;18.67;98.04;100638.94;4975506;28;20499;-79
2023/06/29 03:53:28;;;;;;;12.65;5.65;;;;;;;18.68;97.77;100597.91;4986961;28;20030;-83
2023/06/29 03:55:53;;;;;;;10.63;6.35;;;;;;;18.76;97.41;100605.19;4976777;28;20055;-80
2023/06/29 03:58:21;;;;;;;14.02;7.18;;;;;;;18.78;97.41;100614.00;4995534;28;20026;-84
2023/06/29 04:00:46;;;;;;;13.45;4.93;;;;;;;18.86;97.77;100622.16;4984934;28;20094;-80
2023/06/29 04:03:12;;;;;;;9.43;6.10;;;;;;;18.90;98.08;100601.69;4979650;28;20062;-80
2023/06/29 04:05:37;;;;;;;12.65;6.38;;;;;;;18.88;97.19;100569.19;4976461;28;20031;-80
2023/06/29 04:08:04;;;;;;;7.97;5.60;;;;;;;18.89;96.36;100570.03;4973405;28;20487;-82
2023/06/29 04:10:31;;;;;;;8.35;5.03;;;;;;;18.88;95.26;100595.56;4972921;28;20038;-78
2023/06/29 04:12:56;;;;;;;9.68;8.20;;;;;;;18.85;95.18;100587.75;4955243;28;20031;-79
2023/06/29 04:15:22;;;;;;;9.85;5.82;;;;;;;18.95;95.90;100593.84;4972643;28;20046;-81
2023/06/29 04:17:47;;;;;;;11.93;6.15;;;;;;;19.01;95.64;100593.13;4968443;28;20038;-78
2023/06/29 04:20:13;;;;;;;10.35;5.45;;;;;;;18.98;94.27;100588.88;4954006;28;20557;-85
2023/06/29 04:22:38;;;;;;;13.82;6.13;;;;;;;19.05;93.90;100580.81;4955008;28;20616;-82
2023/06/29 04:25:05;;;;;;;11.77;6.75;;;;;;;19.12;94.22;100587.25;4970300;28;20041;-80
2023/06/29 04:27:33;;;;;;;17.98;6.68;;;;;;;19.26;93.51;100600.13;4973740;28;20078;-81
2023/06/29 04:29:59;;;;;;;14.02;6.07;;;;;;;19.28;93.08;100584.41;4974048;28;20034;-79
2023/06/29 04:32:24;;;;;;;10.43;6.38;;;;;;;19.31;91.26;100589.50;4976580;28;20085;-83
2023/06/29 04:34:49;;;;;;;9.70;6.45;;;;;;;19.36;90.26;100591.66;4977555;28;20057;-86
2023/06/29 04:37:15;;;;;;;6.93;6.22;;;;;;;19.36;89.63;100584.34;4983202;28;20046;-88
2023/06/29 04:39:41;;;;;;;15.98;6.72;;;;;;;19.43;89.26;100593.53;4978080;28;20455;-85
2023/06/29 04:42:10;;;;;;;10.90;6.55;;;;;;;19.43;88.71;100581.75;4981139;28;20029;-89
2023/06/29 04:44:37;;;;;;;9.75;6.20;;;;;;;19.65;88.23;100615.50;4987489;28;20019;-85
2023/06/29 04:47:03;;;;;;;14.70;7.18;;;;;;;19.67;88.09;100618.91;4982798;28;20422;-85
2023/06/29 04:49:37;;;;;;;15.57;7.47;;;;;;;19.64;87.67;100600.16;4974185;28;20047;-85
2023/06/29 04:52:03;;;;;;;10.73;6.90;;;;;;;19.44;86.05;100584.31;4975015;28;20093;-85
2023/06/29 04:54:29;;;;;;;21.42;9.55;;;;;;;19.38;86.20;100578.72;4975706;28;20042;-85
2023/06/29 04:56:56;;;;;;;18.52;7.72;;;;;;;19.56;86.11;100603.81;4977375;28;20027;-86
2023/06/29 04:59:24;;;;;;;13.82;8.18;;;;;;;19.61;85.63;100600.53;4982831;28;20042;-84
2023/06/29 05:01:50;;;;;;;21.17;7.68;;;;;;;19.72;85.38;100608.28;4971328;28;20031;-80
2023/06/29 05:04:16;;;;;;;14.48;8.65;;;;;;;19.66;85.49;100598.97;4969515;28;20035;-77
2023/06/29 05:06:41;;;;;;;10.32;8.55;;;;;;;19.63;85.73;100590.31;4969957;28;20039;-77
2023/06/29 05:09:07;;;;;;;18.23;9.48;;;;;;;19.66;86.18;100589.94;4951925;28;20482;-76
2023/06/29 05:11:34;;;;;;;18.55;8.80;;;;;;;19.65;86.26;100591.81;4968911;28;20026;-80
2023/06/29 05:14:00;;;;;;;15.70;9.95;;;;;;;19.68;86.07;100596.03;4969294;28;20070;-78
2023/06/29 05:16:25;;;;;;;14.80;9.10;;;;;;;19.67;86.39;100595.19;4968156;28;20034;-81
2023/06/29 05:18:51;;;;;;;18.10;9.55;;;;;;;19.73;85.27;100608.09;4969171;28;20043;-78
2023/06/29 05:21:16;;;;;;;19.70;9.60;;;;;;;19.54;84.64;100600.41;4969594;28;20029;-82
2023/06/29 05:23:41;;;;;;;20.73;11.65;;;;;;;19.68;85.56;100612.41;4969935;28;20070;-78
2023/06/29 05:26:07;;;;;;;23.55;10.07;;;;;;;19.76;85.63;100615.91;4975951;28;20045;-79
2023/06/29 05:28:32;;;;;;;18.67;9.40;;;;;;;19.71;84.17;100617.50;4969640;28;20081;-79
2023/06/29 05:30:58;;;;;;;17.20;9.82;;;;;;;19.74;83.93;100609.81;4971658;28;20050;-80
2023/06/29 05:33:23;;;;;;;20.70;11.43;;;;;;;19.74;83.60;100604.34;4939861;28;20061;-78
2023/06/29 05:35:49;;;;;;;19.55;10.60;;;;;;;19.76;83.26;100601.41;4950804;29;20058;-77
2023/06/29 05:38:14;;;;;;;16.95;10.27;;;;;;;19.73;82.81;100593.59;4950530;29;20126;-80
2023/06/29 05:40:40;;;;;;;16.13;10.65;;;;;;;19.82;81.84;100592.50;4954277;29;20513;-77
2023/06/29 05:43:05;;;;;;;16.83;11.10;;;;;;;19.95;81.41;100609.09;4951613;29;20024;-79
2023/06/29 05:45:31;;;;;;;21.88;10.68;;;;;;;19.93;80.02;100601.09;4950483;29;20047;-80
2023/06/29 05:47:56;;;;;;;14.30;9.85;;;;;;;19.94;79.38;100607.38;4950882;29;20027;-80
2023/06/29 05:50:22;;;;;;;17.25;11.73;;;;;;;20.05;79.67;100617.88;4951494;29;20404;-78
2023/06/29 05:52:47;;;;;;;16.02;11.27;;;;;;;20.01;79.14;100614.66;4950574;29;20031;-81
2023/06/29 05:55:13;;;;;;;21.23;10.63;;;;;;;20.09;78.02;100616.44;4950905;29;20075;-77
2023/06/29 05:57:38;;;;;;;16.95;11.43;;;;;;;20.06;78.11;100619.53;4950652;29;20027;-80
2023/06/29 06:00:08;;;;;;;16.15;11.98;;;;;;;20.15;77.99;100626.63;4950453;29;20491;-83
2023/06/29 06:02:34;;;;;;;20.63;13.20;;;;;;;20.11;78.63;100628.03;4950388;29;20047;-83
2023/06/29 06:04:59;;;;;;;26.42;13.30;;;;;;;20.19;78.11;100627.09;4934255;29;20043;-79
2023/06/29 06:07:29;;;;;;;27.67;12.90;;;;;;;20.26;78.98;100623.47;4949118;28;20045;-82
2023/06/29 06:09:56;;;;;;;47.03;15.38;;;;;;;20.28;79.54;100629.59;4972150;28;20030;-82
2023/06/29 06:12:22;;;;;;;32.90;13.57;;;;;;;20.36;78.97;100634.13;4971929;28;20031;-80
2023/06/29 06:14:48;;;;;;;19.70;12.57;;;;;;;20.48;79.12;100628.00;4971660;28;20031;-77
2023/06/29 06:17:13;;;;;;;19.75;12.95;;;;;;;20.61;78.11;100628.16;4971641;28;20041;-79
2023/06/29 06:19:39;;;;;;;41.03;14.25;;;;;;;20.74;77.34;100638.44;4954469;28;20037;-79
2023/06/29 06:22:04;;;;;;;22.98;13.95;;;;;;;20.82;75.60;100634.78;4972126;28;20034;-81
2023/06/29 06:24:30;;;;;;;44.28;17.27;;;;;;;20.84;74.77;100616.28;4972104;28;20054;-80
2023/06/29 06:26:55;;;;;;;20.05;13.48;;;;;;;20.98;74.03;100632.66;4972387;28;20042;-79
2023/06/29 06:29:21;;;;;;;26.08;13.70;;;;;;;21.03;72.45;100643.03;4973675;28;20096;-79
2023/06/29 06:31:46;;;;;;;27.88;13.73;;;;;;;21.05;72.54;100633.59;4972940;28;20081;-78
2023/06/29 06:34:12;;;;;;;26.52;13.63;;;;;;;21.24;72.42;100645.81;4972291;28;20446;-78
2023/06/29 06:36:38;;;;;;;15.18;12.60;;;;;;;21.27;71.44;100639.13;4973112;28;20113;-79
2023/06/29 06:39:03;;;;;;;25.27;12.65;;;;;;;21.40;70.49;100653.81;4975819;28;20447;-80
2023/06/29 06:41:29;;;;;;;33.08;14.10;;;;;;;21.45;70.62;100653.19;4972223;28;20503;-80
2023/06/29 06:43:54;;;;;;;26.95;13.52;;;;;;;21.40;70.36;100637.38;4953767;28;20073;-79
2023/06/29 06:46:19;;;;;;;20.58;15.63;;;;;;;21.56;69.83;100650.78;4971918;28;20027;-79
2023/06/29 06:48:45;;;;;;;47.25;16.48;;;;;;;21.61;69.58;100651.06;4975915;28;20082;-80
2023/06/29 06:51:10;;;;;;;28.77;12.68;;;;;;;21.69;69.52;100656.41;4970257;28;20479;-78
2023/06/29 06:53:36;;;;;;;28.00;11.15;;;;;;;21.75;67.53;100660.25;4970290;28;20109;-83
2023/06/29 06:56:01;;;;;;;33.40;12.45;;;;;;;21.62;66.18;100647.28;4970830;28;20796;-81
2023/06/29 06:58:27;;;;;;;32.85;12.50;;;;;;;21.55;66.29;100631.84;4971960;28;20490;-83
2023/06/29 07:00:52;;;;;;;27.00;10.82;;;;;;;21.74;65.27;100652.25;4971115;28;20041;-83
2023/06/29 07:03:19;;;;;;;29.05;12.57;;;;;;;21.67;64.63;100650.28;4977258;28;20051;-83
2023/06/29 07:05:46;;;;;;;19.08;11.68;;;;;;;21.65;65.22;100644.13;4976012;28;20042;-83
2023/06/29 07:08:11;;;;;;;28.10;10.93;;;;;;;21.69;64.95;100637.25;4971638;28;20054;-83
2023/06/29 07:10:37;;;;;;;25.33;10.35;;;;;;;21.82;64.25;100624.72;4971409;28;20466;-82
2023/06/29 07:13:02;;;;;;;22.98;11.70;;;;;;;22.18;65.01;100630.94;4971292;28;20081;-82
2023/06/29 07:15:28;;;;;;;16.30;10.70;;;;;;;22.43;64.02;100634.03;4953715;28;20411;-81
2023/06/29 07:17:53;;;;;;;21.33;10.93;;;;;;;22.44;62.65;100643.97;4970272;28;20026;-83
2023/06/29 07:20:19;;;;;;;17.00;10.38;;;;;;;22.52;62.67;100639.16;4971475;28;20451;-81
2023/06/29 07:22:44;;;;;;;23.00;10.63;;;;;;;22.60;61.88;100639.00;4971573;28;20566;-83
2023/06/29 07:25:11;;;;;;;34.35;11.63;;;;;;;22.62;61.44;100639.66;4971302;28;20106;-82
2023/06/29 07:27:37;;;;;;;31.90;11.90;;;;;;;22.52;61.08;100641.91;4972437;28;20058;-82
2023/06/29 07:30:04;;;;;;;21.23;10.30;;;;;;;22.42;61.48;100627.72;4922538;28;20054;-82
2023/06/29 07:32:29;;;;;;;43.03;13.70;;;;;;;22.47;60.86;100622.50;4970462;28;20019;-86
2023/06/29 07:34:54;;;;;;;55.58;14.73;;;;;;;22.64;61.08;100631.22;4970116;28;20037;-82
2023/06/29 07:37:21;;;;;;;38.55;12.85;;;;;;;22.67;61.04;100636.31;4970844;28;20034;-81
2023/06/29 07:39:47;;;;;;;34.88;12.68;;;;;;;22.63;60.01;100622.13;4971408;28;20082;-83
2023/06/29 07:42:12;;;;;;;51.13;12.77;;;;;;;22.78;60.15;100633.03;4971043;28;20831;-82
2023/06/29 07:44:38;;;;;;;33.50;10.75;;;;;;;22.77;59.17;100618.47;4970224;28;20406;-82
2023/06/29 07:47:04;;;;;;;29.50;9.32;;;;;;;22.93;57.78;100627.38;4970117;28;20118;-82
2023/06/29 07:49:29;;;;;;;22.75;9.10;;;;;;;22.97;57.38;100629.50;4969958;28;20054;-82
2023/06/29 07:51:54;;;;;;;42.30;11.32;;;;;;;23.03;56.95;100628.69;4970212;28;20026;-82
2023/06/29 07:54:20;;;;;;;26.65;10.00;;;;;;;23.13;57.40;100631.03;4969922;28;20037;-86
2023/06/29 07:56:45;;;;;;;25.08;8.05;;;;;;;23.07;55.56;100629.97;4970953;28;20030;-83
2023/06/29 07:59:11;;;;;;;12.40;7.90;;;;;;;22.96;54.98;100621.50;4930151;29;20540;-82
2023/06/29 08:01:39;;;;;;;17.70;9.55;;;;;;;22.91;55.77;100621.25;4931470;29;20035;-85
2023/06/29 08:04:06;;;;;;;21.58;7.05;;;;;;;22.88;54.55;100618.91;4932430;29;20082;-83
2023/06/29 08:06:33;;;;;;;29.83;8.48;;;;;;;22.91;53.00;100619.34;4931875;29;20070;-84
2023/06/29 08:09:00;;;;;;;22.48;8.05;;;;;;;22.92;54.77;100610.06;4930893;29;20052;-82
2023/06/29 08:11:26;;;;;;;44.38;9.75;;;;;;;22.93;54.74;100606.28;4931647;29;20040;-84
2023/06/29 08:13:51;;;;;;;29.85;8.52;;;;;;;23.07;55.06;100620.88;4932233;29;20527;-82
2023/06/29 08:16:17;;;;;;;28.35;7.00;;;;;;;23.13;52.66;100628.28;4915773;29;20028;-84
2023/06/29 08:18:42;;;;;;;21.40;6.35;;;;;;;23.00;52.23;100607.13;4931592;29;20056;-84
2023/06/29 08:21:10;;;;;;;11.15;5.93;;;;;;;23.12;51.80;100619.22;4931456;29;20039;-84
2023/06/29 08:23:36;;;;;;;10.65;5.25;;;;;;;23.22;50.10;100610.59;4931633;29;20126;-85
2023/06/29 08:26:03;;;;;;;72.20;13.18;;;;;;;23.34;50.59;100617.16;4931833;29;20186;-84
2023/06/29 08:28:29;;;;;;;10.27;6.00;;;;;;;23.39;51.56;100620.19;4932574;29;20038;-85
2023/06/29 08:30:54;;;;;;;15.68;6.68;;;;;;;23.31;51.29;100615.69;4964779;28;20482;-84
2023/06/29 08:33:23;;;;;;;17.00;5.80;;;;;;;23.47;50.51;100619.97;4972353;28;20049;-84
2023/06/29 08:35:51;;;;;;;26.80;6.30;;;;;;;23.52;50.49;100600.09;4973380;28;20055;-85
2023/06/29 08:38:17;;;;;;;14.55;6.07;;;;;;;23.72;50.25;100611.97;4973221;28;20090;-84
2023/06/29 08:40:48;;;;;;;9.18;5.50;;;;;;;23.89;50.32;100595.91;4956177;28;20031;-84
2023/06/29 08:43:18;;;;;;;8.10;5.97;;;;;;;24.06;49.60;100608.16;4973568;28;20033;-84
2023/06/29 08:45:47;;;;;;;14.80;6.32;;;;;;;24.08;47.57;100600.53;4973859;28;20027;-84
2023/06/29 08:48:13;;;;;;;13.23;5.47;;;;;;;24.00;46.32;100609.00;4975542;28;20062;-84
2023/06/29 08:50:51;;;;;;;8.25;5.32;;;;;;;24.03;47.03;100609.44;4975230;28;20059;-83
2023/06/29 08:53:17;;;;;;;15.20;7.18;;;;;;;24.07;47.38;100587.84;4975998;28;20045;-84
2023/06/29 08:55:43;;;;;;;18.70;6.00;;;;;;;24.22;46.61;100602.22;4976398;28;20471;-84
2023/06/29 08:58:08;;;;;;;25.55;6.35;;;;;;;24.24;46.22;100595.50;4977762;28;20039;-85
2023/06/29 09:00:35;;;;;;;6.43;4.70;;;;;;;24.37;45.90;100589.13;4979246;28;20103;-83
2023/06/29 09:03:03;;;;;;;16.88;5.18;;;;;;;24.50;45.89;100583.56;4974016;28;20081;-84
2023/06/29 09:05:29;;;;;;;19.90;5.68;;;;;;;24.53;45.80;100574.88;4973692;28;20019;-85
2023/06/29 09:07:55;;;;;;;24.55;5.90;;;;;;;24.73;46.58;100594.94;4973954;28;20538;-85
2023/06/29 09:10:22;;;;;;;141.20;16.75;;;;;;;24.92;45.62;100584.09;4956185;28;20085;-85
2023/06/29 09:12:49;;;;;;;26.75;7.43;;;;;;;25.07;46.03;100576.38;4974667;28;20125;-83
2023/06/29 09:15:16;;;;;;;18.63;6.20;;;;;;;25.24;45.58;100585.78;4973831;28;20562;-85
2023/06/29 09:17:47;;;;;;;8.02;5.10;;;;;;;25.16;44.53;100572.31;4956916;28;20081;-84
2023/06/29 09:20:15;;;;;;;13.82;4.93;;;;;;;25.26;43.46;100572.63;4972884;28;20458;-84
2023/06/29 09:22:41;;;;;;;9.38;4.55;;;;;;;25.35;42.70;100571.34;4990018;28;20026;-87
2023/06/29 09:25:09;;;;;;;20.45;5.78;;;;;;;25.40;42.58;100574.25;4993173;28;20015;-84
2023/06/29 09:27:35;;;;;;;14.55;5.15;;;;;;;25.48;42.59;100582.25;4991483;28;20023;-87
2023/06/29 09:30:03;;;;;;;14.60;6.30;;;;;;;25.50;42.68;100569.13;4991907;28;20022;-86
2023/06/29 09:32:29;;;;;;;13.88;5.50;;;;;;;25.53;43.12;100579.72;4993226;28;20019;-85
2023/06/29 09:34:55;;;;;;;14.05;7.28;;;;;;;25.47;42.41;100561.28;4995798;28;20034;-86
2023/06/29 09:37:20;;;;;;;17.80;5.68;;;;;;;25.65;43.05;100577.06;4985484;28;20019;-85
2023/06/29 09:40:09;;;;;;;7.25;5.70;;;;;;;25.66;40.79;100574.06;4993539;28;20046;-86
2023/06/29 09:42:39;;;;;;;5.63;4.93;;;;;;;25.67;40.54;100578.53;4989726;28;20035;-83
2023/06/29 09:45:11;;;;;;;17.85;5.45;;;;;;;25.73;41.52;100569.38;4991041;28;20018;-88
2023/06/29 09:47:47;;;;;;;14.55;5.57;;;;;;;25.72;41.83;100555.78;4991293;28;20042;-85
2023/06/29 09:50:20;;;;;;;15.13;6.32;;;;;;;25.85;42.09;100586.00;4993252;28;20053;-86
2023/06/29 09:52:47;;;;;;;10.00;5.10;;;;;;;25.80;41.75;100555.53;4984062;28;20052;-83
2023/06/29 09:55:16;;;;;;;14.55;5.78;;;;;;;25.96;41.92;100575.06;4989746;28;20082;-87
2023/06/29 09:57:42;;;;;;;18.92;5.90;;;;;;;26.06;41.66;100580.06;4994889;28;20069;-84
2023/06/29 10:00:13;;;;;;;35.75;6.70;;;;;;;26.20;41.65;100570.66;4994926;28;20030;-87
2023/06/29 10:02:41;;;;;;;8.55;5.00;;;;;;;26.45;41.18;100562.31;4991833;28;20034;-85
2023/06/29 10:05:08;;;;;;;23.02;6.70;;;;;;;26.51;41.21;100542.09;4981626;28;20035;-88
2023/06/29 10:07:34;;;;;;;24.27;4.88;;;;;;;26.62;38.94;100546.81;4984064;28;20029;-84
2023/06/29 10:10:01;;;;;;;12.75;5.50;;;;;;;26.70;39.74;100571.34;4956239;28;20197;-86
2023/06/29 10:12:27;;;;;;;7.65;4.60;;;;;;;26.69;39.45;100558.63;4969372;28;20035;-79
2023/06/29 10:14:58;;;;;;;13.85;5.10;;;;;;;26.75;39.51;100557.69;4969969;28;20042;-84
2023/06/29 10:17:30;;;;;;;9.60;4.88;;;;;;;26.86;40.05;100551.41;4971905;28;20174;-85
2023/06/29 10:19:58;;;;;;;15.10;5.82;;;;;;;27.09;39.36;100553.44;4973218;28;20499;-86
2023/06/29 10:22:26;;;;;;;8.95;4.80;;;;;;;27.34;40.01;100561.56;4973740;28;20038;-82
2023/06/29 10:24:58;;;;;;;17.50;5.47;;;;;;;27.45;39.31;100558.03;4975791;28;20026;-82
2023/06/29 10:27:25;;;;;;;;;;;;;;;27.42;38.83;100572.28;4972813;28;20037;-84
2023/06/29 10:29:50;;;;;;;15.25;5.40;;;;;;;27.21;39.11;100559.84;4972839;28;19924;-88
2023/06/29 10:32:37;;;;;;;9.90;5.18;;;;;;;27.11;37.51;100561.47;4971924;28;20310;-83
2023/06/29 10:35:13;;;;;;;7.55;4.82;;;;;;;26.88;38.28;100565.81;4972169;28;20121;-84
2023/06/29 10:37:42;;;;;;;23.17;5.93;;;;;;;26.72;38.12;100536.09;4994883;28;20066;-91
2023/06/29 10:40:10;;;;;;;10.90;5.15;;;;;;;26.96;37.99;100562.75;4994855;28;20035;-96
2023/06/29 10:42:39;;;;;;;7.80;3.88;;;;;;;26.86;37.60;100554.19;4996225;28;20023;-95
2023/06/29 10:45:25;;;;;;;10.18;4.93;;;;;;;26.82;37.47;100518.97;4996415;28;20029;-96
2023/06/29 10:47:56;;;;;;;6.97;4.57;;;;;;;27.12;37.40;100555.75;4907400;29;20139;-95
2023/06/29 10:50:25;;;;;;;13.35;4.60;;;;;;;27.09;37.32;100528.59;4902595;29;20048;-93
2023/06/29 10:52:51;;;;;;;11.80;5.60;;;;;;;27.31;37.17;100538.00;4899789;29;20044;-90
2023/06/29 10:55:30;;;;;;;15.55;5.65;;;;;;;27.44;37.05;100528.72;4903369;29;20036;-91
2023/06/29 10:57:59;;;;;;;19.30;6.05;;;;;;;27.67;36.84;100539.81;4899601;29;20123;-83
2023/06/29 11:00:26;;;;;;;8.88;5.53;;;;;;;27.67;36.54;100545.34;4911294;29;20051;-82
2023/06/29 11:02:53;;;;;;;10.65;5.30;;;;;;;27.59;37.18;100545.66;4910758;29;20103;-83
2023/06/29 11:05:20;;;;;;;44.03;9.18;;;;;;;27.51;36.61;100532.22;4910801;29;20528;-83
2023/06/29 11:07:52;;;;;;;17.98;5.90;;;;;;;27.45;36.72;100534.00;4910948;29;20207;-82
2023/06/29 11:10:22;;;;;;;9.60;4.60;;;;;;;27.33;36.26;100537.78;4910694;29;20339;-82
2023/06/29 11:12:54;;;;;;;17.80;5.85;;;;;;;27.28;36.16;100541.25;4893124;29;20040;-82
2023/06/29 11:15:21;;;;;;;7.35;3.83;;;;;;;27.40;35.96;100527.50;4891535;29;20513;-81